sensor_id;sensor_type;location;lat;lon;timestamp;pressure;altitude;pressure_sealevel;temperature;humidity
75740;BME280;64357;51.344;6.550;2023-04-06T00:02:15;101362.97;;;3.75;67.38
75740;BME280;64357;51.344;6.550;2023-04-06T00:04:45;101353.66;;;3.68;67.91
75740;BME280;64357;51.344;6.550;2023-04-06T00:07:10;101359.63;;;3.69;67.99
75740;BME280;64357;51.344;6.550;2023-04-06T00:09:39;101357.69;;;3.61;68.53
75740;BME280;64357;51.344;6.550;2023-04-06T00:12:06;101360.22;;;3.61;67.95
75740;BME280;64357;51.344;6.550;2023-04-06T00:14:31;101351.53;;;3.59;67.77
75740;BME280;64357;51.344;6.550;2023-04-06T00:16:59;101355.25;;;3.55;68.63
75740;BME280;64357;51.344;6.550;2023-04-06T00:19:25;101354.25;;;3.60;68.30
75740;BME280;64357;51.344;6.550;2023-04-06T00:21:52;101347.06;;;3.51;68.59
75740;BME280;64357;51.344;6.550;2023-04-06T00:24:20;101347.47;;;3.54;68.89
75740;BME280;64357;51.344;6.550;2023-04-06T00:26:45;101341.00;;;3.56;68.79
75740;BME280;64357;51.344;6.550;2023-04-06T00:29:13;101344.03;;;3.53;69.14
75740;BME280;64357;51.344;6.550;2023-04-06T00:31:38;101347.97;;;3.51;68.98
75740;BME280;64357;51.344;6.550;2023-04-06T00:34:05;101338.28;;;3.54;69.14
75740;BME280;64357;51.344;6.550;2023-04-06T00:36:32;101338.75;;;3.52;69.28
75740;BME280;64357;51.344;6.550;2023-04-06T00:38:59;101339.47;;;3.51;69.24
75740;BME280;64357;51.344;6.550;2023-04-06T00:41:25;101333.72;;;3.52;69.40
75740;BME280;64357;51.344;6.550;2023-04-06T00:43:51;101334.22;;;3.49;69.77
75740;BME280;64357;51.344;6.550;2023-04-06T00:46:16;101328.56;;;3.44;69.72
75740;BME280;64357;51.344;6.550;2023-04-06T00:48:44;101333.22;;;3.41;70.30
75740;BME280;64357;51.344;6.550;2023-04-06T00:51:10;101324.50;;;3.39;70.17
75740;BME280;64357;51.344;6.550;2023-04-06T00:53:35;101320.03;;;3.31;70.53
75740;BME280;64357;51.344;6.550;2023-04-06T00:56:00;101320.31;;;3.27;70.72
75740;BME280;64357;51.344;6.550;2023-04-06T00:58:26;101320.53;;;3.29;71.45
75740;BME280;64357;51.344;6.550;2023-04-06T01:00:51;101316.59;;;3.31;70.92
75740;BME280;64357;51.344;6.550;2023-04-06T01:03:19;101307.22;;;3.30;70.60
75740;BME280;64357;51.344;6.550;2023-04-06T01:05:45;101305.16;;;3.27;70.49
75740;BME280;64357;51.344;6.550;2023-04-06T01:08:10;101310.72;;;3.25;70.82
75740;BME280;64357;51.344;6.550;2023-04-06T01:10:36;101300.91;;;3.20;70.61
75740;BME280;64357;51.344;6.550;2023-04-06T01:13:04;101302.13;;;3.17;71.25
75740;BME280;64357;51.344;6.550;2023-04-06T01:15:29;101299.00;;;3.25;70.99
75740;BME280;64357;51.344;6.550;2023-04-06T01:17:55;101302.56;;;3.33;70.22
75740;BME280;64357;51.344;6.550;2023-04-06T01:20:23;101301.03;;;3.28;70.96
75740;BME280;64357;51.344;6.550;2023-04-06T01:22:51;101296.41;;;3.31;69.67
75740;BME280;64357;51.344;6.550;2023-04-06T01:25:16;101285.31;;;3.36;69.54
75740;BME280;64357;51.344;6.550;2023-04-06T01:27:42;101293.38;;;3.33;69.71
75740;BME280;64357;51.344;6.550;2023-04-06T01:30:07;101282.78;;;3.36;69.41
75740;BME280;64357;51.344;6.550;2023-04-06T01:32:33;101278.72;;;3.31;67.79
75740;BME280;64357;51.344;6.550;2023-04-06T01:35:00;101286.84;;;3.41;69.22
75740;BME280;64357;51.344;6.550;2023-04-06T01:37:26;101272.72;;;3.48;66.11
75740;BME280;64357;51.344;6.550;2023-04-06T01:39:51;101276.69;;;3.72;62.61
75740;BME280;64357;51.344;6.550;2023-04-06T01:42:17;101279.81;;;3.77;67.15
75740;BME280;64357;51.344;6.550;2023-04-06T01:44:46;101271.63;;;3.59;67.82
75740;BME280;64357;51.344;6.550;2023-04-06T01:47:14;101271.50;;;3.52;66.00
75740;BME280;64357;51.344;6.550;2023-04-06T01:49:39;101272.72;;;3.48;67.86
75740;BME280;64357;51.344;6.550;2023-04-06T01:52:05;101279.38;;;3.48;68.76
75740;BME280;64357;51.344;6.550;2023-04-06T01:54:30;101273.59;;;3.36;67.28
75740;BME280;64357;51.344;6.550;2023-04-06T01:56:56;101270.53;;;3.26;68.27
75740;BME280;64357;51.344;6.550;2023-04-06T01:59:21;101266.66;;;3.66;63.17
75740;BME280;64357;51.344;6.550;2023-04-06T02:01:46;101258.59;;;3.94;60.75
75740;BME280;64357;51.344;6.550;2023-04-06T02:04:12;101252.72;;;4.14;59.99
75740;BME280;64357;51.344;6.550;2023-04-06T02:06:39;101250.97;;;4.20;59.72
75740;BME280;64357;51.344;6.550;2023-04-06T02:09:06;101257.13;;;4.22;60.03
75740;BME280;64357;51.344;6.550;2023-04-06T02:11:35;101250.59;;;4.17;61.72
75740;BME280;64357;51.344;6.550;2023-04-06T02:14:05;101248.88;;;3.97;64.84
75740;BME280;64357;51.344;6.550;2023-04-06T02:16:30;101249.50;;;3.77;65.72
75740;BME280;64357;51.344;6.550;2023-04-06T02:18:58;101254.75;;;3.53;67.42
75740;BME280;64357;51.344;6.550;2023-04-06T02:21:24;101251.06;;;3.38;67.75
75740;BME280;64357;51.344;6.550;2023-04-06T02:23:49;101242.13;;;3.65;64.42
75740;BME280;64357;51.344;6.550;2023-04-06T02:26:17;101243.72;;;3.90;63.41
75740;BME280;64357;51.344;6.550;2023-04-06T02:28:45;101241.50;;;3.99;63.16
75740;BME280;64357;51.344;6.550;2023-04-06T02:31:11;101245.75;;;4.06;63.48
75740;BME280;64357;51.344;6.550;2023-04-06T02:33:36;101242.31;;;4.05;64.34
75740;BME280;64357;51.344;6.550;2023-04-06T02:36:04;101231.69;;;3.95;65.38
75740;BME280;64357;51.344;6.550;2023-04-06T02:38:30;101242.53;;;3.94;65.76
75740;BME280;64357;51.344;6.550;2023-04-06T02:40:55;101245.53;;;3.91;65.81
75740;BME280;64357;51.344;6.550;2023-04-06T02:43:20;101241.91;;;3.89;66.28
75740;BME280;64357;51.344;6.550;2023-04-06T02:45:48;101246.16;;;3.83;66.88
75740;BME280;64357;51.344;6.550;2023-04-06T02:48:17;101239.41;;;3.77;67.17
75740;BME280;64357;51.344;6.550;2023-04-06T02:50:45;101245.16;;;3.76;67.17
75740;BME280;64357;51.344;6.550;2023-04-06T02:53:10;101235.25;;;3.64;67.15
75740;BME280;64357;51.344;6.550;2023-04-06T02:55:36;101241.59;;;3.68;67.49
75740;BME280;64357;51.344;6.550;2023-04-06T02:58:01;101237.06;;;3.65;67.94
75740;BME280;64357;51.344;6.550;2023-04-06T03:00:27;101236.44;;;3.61;68.08
75740;BME280;64357;51.344;6.550;2023-04-06T03:02:52;101238.69;;;3.65;68.35
75740;BME280;64357;51.344;6.550;2023-04-06T03:05:17;101234.81;;;3.61;68.69
75740;BME280;64357;51.344;6.550;2023-04-06T03:07:43;101240.16;;;3.57;68.68
75740;BME280;64357;51.344;6.550;2023-04-06T03:10:11;101237.34;;;3.61;68.96
75740;BME280;64357;51.344;6.550;2023-04-06T03:12:39;101231.69;;;3.57;68.58
75740;BME280;64357;51.344;6.550;2023-04-06T03:15:07;101235.13;;;3.57;68.97
75740;BME280;64357;51.344;6.550;2023-04-06T03:17:33;101227.63;;;3.52;68.89
75740;BME280;64357;51.344;6.550;2023-04-06T03:19:58;101243.63;;;3.58;69.22
75740;BME280;64357;51.344;6.550;2023-04-06T03:22:23;101226.34;;;3.48;69.63
75740;BME280;64357;51.344;6.550;2023-04-06T03:24:49;101232.50;;;3.50;69.50
75740;BME280;64357;51.344;6.550;2023-04-06T03:27:15;101232.28;;;3.48;70.00
75740;BME280;64357;51.344;6.550;2023-04-06T03:29:40;101231.47;;;3.42;69.82
75740;BME280;64357;51.344;6.550;2023-04-06T03:32:06;101239.44;;;3.45;70.04
75740;BME280;64357;51.344;6.550;2023-04-06T03:34:31;101237.88;;;3.46;69.09
75740;BME280;64357;51.344;6.550;2023-04-06T03:36:57;101235.63;;;3.42;69.24
75740;BME280;64357;51.344;6.550;2023-04-06T03:39:24;101237.44;;;3.43;69.66
75740;BME280;64357;51.344;6.550;2023-04-06T03:41:50;101234.50;;;3.40;69.58
75740;BME280;64357;51.344;6.550;2023-04-06T03:44:15;101227.63;;;3.39;69.66
75740;BME280;64357;51.344;6.550;2023-04-06T03:46:41;101230.88;;;3.38;69.45
75740;BME280;64357;51.344;6.550;2023-04-06T03:49:09;101231.78;;;3.38;69.30
75740;BME280;64357;51.344;6.550;2023-04-06T03:51:34;101221.56;;;3.31;69.56
75740;BME280;64357;51.344;6.550;2023-04-06T03:54:00;101222.28;;;3.43;69.19
75740;BME280;64357;51.344;6.550;2023-04-06T03:56:25;101210.03;;;3.33;68.86
75740;BME280;64357;51.344;6.550;2023-04-06T03:58:51;101220.66;;;3.43;69.26
75740;BME280;64357;51.344;6.550;2023-04-06T04:01:17;101217.44;;;3.44;69.40
75740;BME280;64357;51.344;6.550;2023-04-06T04:03:45;101220.66;;;3.43;69.26
75740;BME280;64357;51.344;6.550;2023-04-06T04:06:10;101220.47;;;3.42;69.32
75740;BME280;64357;51.344;6.550;2023-04-06T04:08:36;101212.38;;;3.32;70.00
75740;BME280;64357;51.344;6.550;2023-04-06T04:11:04;101223.09;;;3.36;70.02
75740;BME280;64357;51.344;6.550;2023-04-06T04:13:29;101221.56;;;3.31;70.10
75740;BME280;64357;51.344;6.550;2023-04-06T04:15:55;101220.03;;;3.26;70.51
75740;BME280;64357;51.344;6.550;2023-04-06T04:18:20;101221.56;;;3.31;70.44
75740;BME280;64357;51.344;6.550;2023-04-06T04:20:46;101217.22;;;3.30;70.64
75740;BME280;64357;51.344;6.550;2023-04-06T04:23:11;101211.16;;;3.23;70.68
75740;BME280;64357;51.344;6.550;2023-04-06T04:25:41;101223.38;;;3.32;70.79
75740;BME280;64357;51.344;6.550;2023-04-06T04:28:08;101217.72;;;3.28;70.65
75740;BME280;64357;51.344;6.550;2023-04-06T04:30:34;101214.09;;;3.26;70.94
75740;BME280;64357;51.344;6.550;2023-04-06T04:32:59;101212.28;;;3.25;70.95
75740;BME280;64357;51.344;6.550;2023-04-06T04:35:26;101215.28;;;3.22;71.03
75740;BME280;64357;51.344;6.550;2023-04-06T04:37:54;101221.66;;;3.26;70.80
75740;BME280;64357;51.344;6.550;2023-04-06T04:40:19;101206.22;;;3.17;71.15
75740;BME280;64357;51.344;6.550;2023-04-06T04:42:45;101211.84;;;3.21;70.98
75740;BME280;64357;51.344;6.550;2023-04-06T04:45:13;101219.13;;;3.26;70.71
75740;BME280;64357;51.344;6.550;2023-04-06T04:47:39;101208.84;;;3.24;70.66
75740;BME280;64357;51.344;6.550;2023-04-06T04:50:07;101200.66;;;3.19;70.74
75740;BME280;64357;51.344;6.550;2023-04-06T04:52:33;101205.88;;;3.21;70.87
75740;BME280;64357;51.344;6.550;2023-04-06T04:55:01;101199.81;;;3.13;70.91
75740;BME280;64357;51.344;6.550;2023-04-06T04:57:26;101208.03;;;3.18;71.27
75740;BME280;64357;51.344;6.550;2023-04-06T04:59:54;101212.97;;;3.11;70.95
75740;BME280;64357;51.344;6.550;2023-04-06T05:02:20;101211.53;;;3.13;71.48
75740;BME280;64357;51.344;6.550;2023-04-06T05:04:47;101210.22;;;3.09;71.75
75740;BME280;64357;51.344;6.550;2023-04-06T05:07:13;101215.16;;;3.15;71.49
75740;BME280;64357;51.344;6.550;2023-04-06T05:09:40;101213.56;;;3.15;71.21
75740;BME280;64357;51.344;6.550;2023-04-06T05:12:06;101216.97;;;3.16;70.71
75740;BME280;64357;51.344;6.550;2023-04-06T05:14:31;101214.25;;;3.14;69.82
75740;BME280;64357;51.344;6.550;2023-04-06T05:16:57;101211.75;;;3.14;69.43
75740;BME280;64357;51.344;6.550;2023-04-06T05:19:25;101224.56;;;3.16;69.20
75740;BME280;64357;51.344;6.550;2023-04-06T05:21:50;101214.78;;;3.12;69.00
75740;BME280;64357;51.344;6.550;2023-04-06T05:24:16;101211.53;;;3.13;69.62
75740;BME280;64357;51.344;6.550;2023-04-06T05:26:41;101213.88;;;3.11;69.27
75740;BME280;64357;51.344;6.550;2023-04-06T05:29:10;101219.50;;;3.16;69.06
75740;BME280;64357;51.344;6.550;2023-04-06T05:31:36;101226.78;;;3.20;68.84
75740;BME280;64357;51.344;6.550;2023-04-06T05:34:01;101219.22;;;3.20;68.93
75740;BME280;64357;51.344;6.550;2023-04-06T05:36:29;101222.66;;;3.20;69.26
75740;BME280;64357;51.344;6.550;2023-04-06T05:38:56;101219.22;;;3.20;68.90
75740;BME280;64357;51.344;6.550;2023-04-06T05:41:21;101223.00;;;3.29;68.85
75740;BME280;64357;51.344;6.550;2023-04-06T05:43:47;101217.03;;;3.29;68.15
75740;BME280;64357;51.344;6.550;2023-04-06T05:46:12;101217.44;;;3.32;69.12
75740;BME280;64357;51.344;6.550;2023-04-06T05:48:37;101217.53;;;3.39;68.41
75740;BME280;64357;51.344;6.550;2023-04-06T05:51:08;101202.09;;;3.30;68.08
75740;BME280;64357;51.344;6.550;2023-04-06T05:53:33;101219.66;;;3.36;68.09
75740;BME280;64357;51.344;6.550;2023-04-06T05:56:06;101218.66;;;3.41;67.61
75740;BME280;64357;51.344;6.550;2023-04-06T05:58:32;101200.38;;;3.36;67.54
75740;BME280;64357;51.344;6.550;2023-04-06T06:01:00;101212.63;;;3.46;67.15
75740;BME280;64357;51.344;6.550;2023-04-06T06:03:28;101207.66;;;3.40;66.81
75740;BME280;64357;51.344;6.550;2023-04-06T06:06:02;101220.78;;;3.51;66.54
75740;BME280;64357;51.344;6.550;2023-04-06T06:08:29;101212.38;;;3.57;66.36
75740;BME280;64357;51.344;6.550;2023-04-06T06:10:55;101212.50;;;3.64;66.25
75740;BME280;64357;51.344;6.550;2023-04-06T06:13:23;101208.97;;;3.69;66.25
75740;BME280;64357;51.344;6.550;2023-04-06T06:15:49;101202.41;;;3.77;65.62
75740;BME280;64357;51.344;6.550;2023-04-06T06:18:15;101199.25;;;3.85;65.21
75740;BME280;64357;51.344;6.550;2023-04-06T06:20:42;101202.47;;;3.97;65.03
75740;BME280;64357;51.344;6.550;2023-04-06T06:23:08;101202.25;;;4.08;64.17
75740;BME280;64357;51.344;6.550;2023-04-06T06:25:33;101204.75;;;4.21;63.95
75740;BME280;64357;51.344;6.550;2023-04-06T06:27:59;101194.44;;;4.19;64.15
75740;BME280;64357;51.344;6.550;2023-04-06T06:30:29;101210.66;;;4.47;63.81
75740;BME280;64357;51.344;6.550;2023-04-06T06:32:55;101214.13;;;4.67;62.80
75740;BME280;64357;51.344;6.550;2023-04-06T06:35:22;101207.28;;;4.53;63.12
75740;BME280;64357;51.344;6.550;2023-04-06T06:37:48;101212.72;;;4.69;62.07
75740;BME280;64357;51.344;6.550;2023-04-06T06:40:13;101211.75;;;4.81;61.92
75740;BME280;64357;51.344;6.550;2023-04-06T06:42:41;101217.09;;;4.97;61.33
75740;BME280;64357;51.344;6.550;2023-04-06T06:45:07;101213.47;;;4.95;61.39
75740;BME280;64357;51.344;6.550;2023-04-06T06:47:33;101201.06;;;5.04;61.42
75740;BME280;64357;51.344;6.550;2023-04-06T06:49:58;101208.25;;;5.21;60.25
75740;BME280;64357;51.344;6.550;2023-04-06T06:52:23;101205.03;;;5.22;59.71
75740;BME280;64357;51.344;6.550;2023-04-06T06:54:49;101201.00;;;5.44;60.22
75740;BME280;64357;51.344;6.550;2023-04-06T06:57:17;101205.03;;;5.49;59.73
75740;BME280;64357;51.344;6.550;2023-04-06T06:59:42;101192.94;;;5.53;58.93
75740;BME280;64357;51.344;6.550;2023-04-06T07:02:08;101201.31;;;5.59;59.37
75740;BME280;64357;51.344;6.550;2023-04-06T07:04:35;101197.53;;;5.63;59.13
75740;BME280;64357;51.344;6.550;2023-04-06T07:07:01;101199.84;;;5.88;58.64
75740;BME280;64357;51.344;6.550;2023-04-06T07:09:29;101202.09;;;6.00;58.17
75740;BME280;64357;51.344;6.550;2023-04-06T07:11:56;101196.06;;;5.92;57.86
75740;BME280;64357;51.344;6.550;2023-04-06T07:14:22;101193.31;;;5.91;57.38
75740;BME280;64357;51.344;6.550;2023-04-06T07:16:47;101192.31;;;6.03;57.70
75740;BME280;64357;51.344;6.550;2023-04-06T07:19:15;101183.72;;;6.22;57.29
75740;BME280;64357;51.344;6.550;2023-04-06T07:21:40;101179.13;;;6.05;57.02
75740;BME280;64357;51.344;6.550;2023-04-06T07:24:09;101188.22;;;6.10;57.28
75740;BME280;64357;51.344;6.550;2023-04-06T07:26:34;101176.88;;;6.35;56.67
75740;BME280;64357;51.344;6.550;2023-04-06T07:29:00;101181.22;;;6.44;56.12
75740;BME280;64357;51.344;6.550;2023-04-06T07:31:25;101169.25;;;6.43;56.53
75740;BME280;64357;51.344;6.550;2023-04-06T07:33:51;101169.66;;;6.60;57.05
75740;BME280;64357;51.344;6.550;2023-04-06T07:36:19;101179.31;;;6.70;57.35
75740;BME280;64357;51.344;6.550;2023-04-06T07:38:45;101180.94;;;6.83;57.22
75740;BME280;64357;51.344;6.550;2023-04-06T07:41:13;101182.56;;;6.83;56.83
75740;BME280;64357;51.344;6.550;2023-04-06T07:43:39;101186.34;;;6.72;57.30
75740;BME280;64357;51.344;6.550;2023-04-06T07:46:06;101179.69;;;6.94;56.23
75740;BME280;64357;51.344;6.550;2023-04-06T07:48:34;101179.31;;;6.98;55.92
75740;BME280;64357;51.344;6.550;2023-04-06T07:51:04;101174.25;;;6.98;55.50
75740;BME280;64357;51.344;6.550;2023-04-06T07:53:29;101175.13;;;7.20;55.75
75740;BME280;64357;51.344;6.550;2023-04-06T07:55:56;101175.84;;;7.26;55.56
75740;BME280;64357;51.344;6.550;2023-04-06T07:58:21;101176.41;;;7.24;54.92
75740;BME280;64357;51.344;6.550;2023-04-06T08:00:49;101177.13;;;7.08;55.16
75740;BME280;64357;51.344;6.550;2023-04-06T08:03:15;101165.88;;;7.28;53.91
75740;BME280;64357;51.344;6.550;2023-04-06T08:05:41;101179.66;;;7.30;54.38
75740;BME280;64357;51.344;6.550;2023-04-06T08:08:07;101170.19;;;7.43;53.16
75740;BME280;64357;51.344;6.550;2023-04-06T08:10:33;101178.03;;;7.23;52.80
75740;BME280;64357;51.344;6.550;2023-04-06T08:12:59;101176.19;;;7.43;52.70
75740;BME280;64357;51.344;6.550;2023-04-06T08:15:25;101178.00;;;7.37;53.81
75740;BME280;64357;51.344;6.550;2023-04-06T08:17:50;101175.38;;;7.73;52.74
75740;BME280;64357;51.344;6.550;2023-04-06T08:20:16;101177.91;;;7.87;52.79
75740;BME280;64357;51.344;6.550;2023-04-06T08:22:45;101161.53;;;7.92;51.53
75740;BME280;64357;51.344;6.550;2023-04-06T08:25:11;101178.13;;;8.19;51.53
75740;BME280;64357;51.344;6.550;2023-04-06T08:27:36;101179.50;;;8.31;51.41
75740;BME280;64357;51.344;6.550;2023-04-06T08:30:02;101177.78;;;8.09;52.42
75740;BME280;64357;51.344;6.550;2023-04-06T08:32:27;101172.19;;;8.04;52.06
75740;BME280;64357;51.344;6.550;2023-04-06T08:34:55;101159.06;;;8.15;51.59
75740;BME280;64357;51.344;6.550;2023-04-06T08:37:24;101169.91;;;8.28;51.28
75740;BME280;64357;51.344;6.550;2023-04-06T08:39:49;101156.03;;;8.71;50.20
75740;BME280;64357;51.344;6.550;2023-04-06T08:42:21;101164.47;;;8.86;49.09
75740;BME280;64357;51.344;6.550;2023-04-06T08:44:50;101164.94;;;8.67;49.79
75740;BME280;64357;51.344;6.550;2023-04-06T08:47:19;101165.41;;;8.79;50.29
75740;BME280;64357;51.344;6.550;2023-04-06T08:49:45;101168.75;;;8.71;50.56
75740;BME280;64357;51.344;6.550;2023-04-06T08:52:11;101161.34;;;8.88;50.00
75740;BME280;64357;51.344;6.550;2023-04-06T08:54:38;101149.66;;;8.97;50.17
75740;BME280;64357;51.344;6.550;2023-04-06T08:57:06;101152.72;;;9.18;49.33
75740;BME280;64357;51.344;6.550;2023-04-06T08:59:35;101160.41;;;9.33;48.75
75740;BME280;64357;51.344;6.550;2023-04-06T09:02:04;101150.44;;;9.28;49.14
75740;BME280;64357;51.344;6.550;2023-04-06T09:04:33;101158.94;;;9.35;48.36
75740;BME280;64357;51.344;6.550;2023-04-06T09:07:00;101150.72;;;9.54;47.62
75740;BME280;64357;51.344;6.550;2023-04-06T09:09:27;101164.97;;;9.52;48.33
75740;BME280;64357;51.344;6.550;2023-04-06T09:11:55;101162.81;;;9.64;46.82
75740;BME280;64357;51.344;6.550;2023-04-06T09:14:37;101152.38;;;9.85;45.50
75740;BME280;64357;51.344;6.550;2023-04-06T09:17:03;101148.00;;;10.00;45.21
75740;BME280;64357;51.344;6.550;2023-04-06T09:19:28;101144.72;;;10.41;45.18
75740;BME280;64357;51.344;6.550;2023-04-06T09:22:09;101153.25;;;10.17;45.68
75740;BME280;64357;51.344;6.550;2023-04-06T09:24:52;101148.97;;;10.25;45.46
75740;BME280;64357;51.344;6.550;2023-04-06T09:27:30;101137.19;;;10.58;44.51
75740;BME280;64357;51.344;6.550;2023-04-06T09:30:11;101145.69;;;10.75;44.39
75740;BME280;64357;51.344;6.550;2023-04-06T09:35:13;101158.28;;;10.49;44.33
75740;BME280;64357;51.344;6.550;2023-04-06T09:37:39;101144.63;;;10.48;43.92
75740;BME280;64357;51.344;6.550;2023-04-06T09:40:06;101142.44;;;10.35;44.68
75740;BME280;64357;51.344;6.550;2023-04-06T09:42:32;101145.03;;;10.93;43.29
75740;BME280;64357;51.344;6.550;2023-04-06T09:45:01;101136.13;;;11.23;42.40
75740;BME280;64357;51.344;6.550;2023-04-06T09:47:26;101135.91;;;11.71;42.35
75740;BME280;64357;51.344;6.550;2023-04-06T09:49:56;101148.25;;;11.58;42.69
75740;BME280;64357;51.344;6.550;2023-04-06T09:52:33;101141.03;;;11.12;43.49
75740;BME280;64357;51.344;6.550;2023-04-06T09:55:05;101144.16;;;11.01;43.63
75740;BME280;64357;51.344;6.550;2023-04-06T09:57:37;101143.22;;;10.92;44.21
75740;BME280;64357;51.344;6.550;2023-04-06T10:00:13;101146.59;;;11.08;44.95
75740;BME280;64357;51.344;6.550;2023-04-06T10:02:51;101148.75;;;11.21;44.21
75740;BME280;64357;51.344;6.550;2023-04-06T10:07:47;101130.94;;;12.42;41.34
75740;BME280;64357;51.344;6.550;2023-04-06T10:10:16;101133.84;;;12.28;41.24
75740;BME280;64357;51.344;6.550;2023-04-06T10:12:43;101135.88;;;12.67;40.88
75740;BME280;64357;51.344;6.550;2023-04-06T10:15:09;101133.59;;;13.42;38.98
75740;BME280;64357;51.344;6.550;2023-04-06T10:17:35;101128.19;;;13.67;38.62
75740;BME280;64357;51.344;6.550;2023-04-06T10:20:16;101131.72;;;13.96;38.66
75740;BME280;64357;51.344;6.550;2023-04-06T10:22:55;101137.94;;;12.79;40.92
75740;BME280;64357;51.344;6.550;2023-04-06T10:25:30;101134.88;;;13.37;40.89
75740;BME280;64357;51.344;6.550;2023-04-06T10:28:07;101140.25;;;14.05;38.94
75740;BME280;64357;51.344;6.550;2023-04-06T10:30:42;101133.63;;;14.36;38.15
75740;BME280;64357;51.344;6.550;2023-04-06T10:35:41;101128.19;;;13.85;40.09
75740;BME280;64357;51.344;6.550;2023-04-06T10:38:08;101132.63;;;13.78;40.34
75740;BME280;64357;51.344;6.550;2023-04-06T10:40:38;101138.97;;;13.54;41.59
75740;BME280;64357;51.344;6.550;2023-04-06T10:43:18;101141.88;;;13.12;42.21
75740;BME280;64357;51.344;6.550;2023-04-06T10:45:44;101125.38;;;12.46;43.92
75740;BME280;64357;51.344;6.550;2023-04-06T10:48:18;101143.28;;;13.08;43.23
75740;BME280;64357;51.344;6.550;2023-04-06T10:50:48;101146.63;;;13.35;42.53
75740;BME280;64357;51.344;6.550;2023-04-06T10:53:27;101141.81;;;12.93;42.81
75740;BME280;64357;51.344;6.550;2023-04-06T10:55:56;101140.69;;;12.72;44.14
75740;BME280;64357;51.344;6.550;2023-04-06T10:58:28;101134.31;;;12.77;44.21
75740;BME280;64357;51.344;6.550;2023-04-06T11:00:56;101141.50;;;12.99;43.53
75740;BME280;64357;51.344;6.550;2023-04-06T11:03:21;101131.81;;;13.05;42.86
75740;BME280;64357;51.344;6.550;2023-04-06T11:05:49;101138.78;;;13.33;42.17
75740;BME280;64357;51.344;6.550;2023-04-06T11:08:27;101129.84;;;13.66;41.80
75740;BME280;64357;51.344;6.550;2023-04-06T11:11:06;101127.44;;;13.59;41.62
75740;BME280;64357;51.344;6.550;2023-04-06T11:16:23;101132.69;;;13.42;42.31
75740;BME280;64357;51.344;6.550;2023-04-06T11:18:55;101137.94;;;13.71;42.52
75740;BME280;64357;51.344;6.550;2023-04-06T11:21:41;101129.63;;;13.92;41.66
75740;BME280;64357;51.344;6.550;2023-04-06T11:26:49;101132.09;;;13.44;42.02
75740;BME280;64357;51.344;6.550;2023-04-06T11:29:18;101132.03;;;13.53;42.63
75740;BME280;64357;51.344;6.550;2023-04-06T11:31:49;101129.97;;;13.86;42.23
75740;BME280;64357;51.344;6.550;2023-04-06T11:34:25;101120.75;;;13.15;43.52
75740;BME280;64357;51.344;6.550;2023-04-06T11:36:58;101133.22;;;13.29;44.16
75740;BME280;64357;51.344;6.550;2023-04-06T11:39:26;101132.91;;;13.81;43.34
75740;BME280;64357;51.344;6.550;2023-04-06T11:42:05;101119.22;;;13.25;43.73
75740;BME280;64357;51.344;6.550;2023-04-06T11:47:05;101117.13;;;13.49;42.89
75740;BME280;64357;51.344;6.550;2023-04-06T11:49:32;101114.84;;;13.16;43.26
75740;BME280;64357;51.344;6.550;2023-04-06T11:51:59;101108.19;;;13.92;42.33
75740;BME280;64357;51.344;6.550;2023-04-06T11:54:33;101102.44;;;13.75;41.77
75740;BME280;64357;51.344;6.550;2023-04-06T11:57:03;101106.97;;;13.78;40.65
75740;BME280;64357;51.344;6.550;2023-04-06T11:59:29;101108.31;;;13.55;41.84
75740;BME280;64357;51.344;6.550;2023-04-06T12:01:56;101111.13;;;13.40;42.07
75740;BME280;64357;51.344;6.550;2023-04-06T12:04:22;101108.78;;;13.32;41.77
75740;BME280;64357;51.344;6.550;2023-04-06T12:06:48;101105.00;;;13.56;41.24
75740;BME280;64357;51.344;6.550;2023-04-06T12:09:14;101106.56;;;13.65;40.56
75740;BME280;64357;51.344;6.550;2023-04-06T12:11:49;101102.41;;;13.38;41.96
75740;BME280;64357;51.344;6.550;2023-04-06T12:14:15;101108.19;;;13.18;42.68
75740;BME280;64357;51.344;6.550;2023-04-06T12:16:45;101102.06;;;12.71;44.30
75740;BME280;64357;51.344;6.550;2023-04-06T12:19:11;101106.50;;;12.99;44.48
75740;BME280;64357;51.344;6.550;2023-04-06T12:21:39;101120.44;;;13.20;44.20
75740;BME280;64357;51.344;6.550;2023-04-06T12:24:08;101110.75;;;12.37;46.53
75740;BME280;64357;51.344;6.550;2023-04-06T12:26:36;101112.91;;;12.32;46.47
75740;BME280;64357;51.344;6.550;2023-04-06T12:29:03;101110.94;;;12.30;46.24
75740;BME280;64357;51.344;6.550;2023-04-06T12:31:43;101107.56;;;12.93;44.83
75740;BME280;64357;51.344;6.550;2023-04-06T12:34:13;101116.09;;;13.11;44.55
75740;BME280;64357;51.344;6.550;2023-04-06T12:36:39;101112.22;;;13.60;43.34
75740;BME280;64357;51.344;6.550;2023-04-06T12:39:05;101117.47;;;13.62;43.76
75740;BME280;64357;51.344;6.550;2023-04-06T12:41:30;101115.59;;;13.51;42.89
75740;BME280;64357;51.344;6.550;2023-04-06T12:43:59;101114.97;;;13.53;41.88
75740;BME280;64357;51.344;6.550;2023-04-06T12:46:24;101114.81;;;13.33;42.80
75740;BME280;64357;51.344;6.550;2023-04-06T12:48:51;101107.69;;;13.30;43.35
75740;BME280;64357;51.344;6.550;2023-04-06T12:51:25;101103.47;;;12.95;44.76
75740;BME280;64357;51.344;6.550;2023-04-06T12:53:52;101106.34;;;12.98;45.07
75740;BME280;64357;51.344;6.550;2023-04-06T12:56:29;101108.34;;;12.92;45.83
75740;BME280;64357;51.344;6.550;2023-04-06T12:58:56;101115.38;;;13.03;46.37
75740;BME280;64357;51.344;6.550;2023-04-06T13:01:21;101107.13;;;12.97;46.59
75740;BME280;64357;51.344;6.550;2023-04-06T13:03:46;101113.50;;;12.21;49.39
75740;BME280;64357;51.344;6.550;2023-04-06T13:06:12;101109.44;;;11.88;51.14
75740;BME280;64357;51.344;6.550;2023-04-06T13:08:40;101112.00;;;11.88;52.62
75740;BME280;64357;51.344;6.550;2023-04-06T13:11:06;101093.81;;;11.85;55.35
75740;BME280;64357;51.344;6.550;2023-04-06T13:13:49;101097.41;;;11.87;56.79
75740;BME280;64357;51.344;6.550;2023-04-06T13:16:14;101097.63;;;11.21;59.45